createdAt,value
2023-01-03T00:00:24.793Z,94.55
2023-01-03T00:02:51.903Z,94.52
2023-01-03T00:05:18.885Z,94.51
2023-01-03T00:07:45.725Z,94.78
2023-01-03T00:10:12.708Z,94.66
2023-01-03T00:12:39.748Z,94.72
2023-01-03T00:15:07.081Z,94.69
2023-01-03T00:17:34.090Z,94.78
2023-01-03T00:20:01.113Z,94.86
2023-01-03T00:22:31.837Z,94.93
2023-01-03T00:24:58.778Z,94.97
2023-01-03T00:27:27.071Z,95.20
2023-01-03T00:29:55.517Z,95.26
2023-01-03T00:32:22.434Z,95.02
2023-01-03T00:34:49.267Z,95.36
2023-01-03T00:37:16.405Z,95.40
2023-01-03T00:39:43.971Z,95.41
2023-01-03T00:42:10.931Z,95.47
2023-01-03T00:44:37.865Z,95.28
2023-01-03T00:47:04.871Z,95.32
2023-01-03T00:49:31.761Z,95.23
2023-01-03T00:51:58.874Z,95.20
2023-01-03T00:54:25.889Z,95.31
2023-01-03T00:56:53.181Z,95.40
2023-01-03T00:59:21.571Z,95.31
2023-01-03T01:01:54.187Z,95.54
2023-01-03T01:04:25.087Z,95.46
2023-01-03T01:06:59.036Z,95.58
2023-01-03T01:09:37.739Z,95.37
2023-01-03T01:12:07.148Z,95.27
2023-01-03T01:14:34.344Z,95.30
2023-01-03T01:17:04.627Z,95.19
2023-01-03T01:19:37.558Z,95.06
2023-01-03T01:22:05.005Z,95.19
2023-01-03T01:24:32.383Z,95.30
2023-01-03T01:26:59.424Z,95.20
2023-01-03T01:29:27.524Z,95.09
2023-01-03T01:31:54.501Z,95.18
2023-01-03T01:34:21.769Z,95.22
2023-01-03T01:36:49.118Z,95.14
2023-01-03T01:39:27.870Z,95.03
2023-01-03T01:42:20.292Z,95.05
2023-01-03T01:44:52.484Z,95.03
2023-01-03T01:47:39.556Z,94.93
2023-01-03T01:50:30.549Z,95.27
2023-01-03T01:53:15.435Z,95.28
2023-01-03T01:55:56.225Z,95.30
2023-01-03T01:58:26.728Z,95.37
2023-01-03T02:00:54.407Z,95.38
2023-01-03T02:03:21.324Z,95.61
2023-01-03T02:05:52.409Z,95.38
2023-01-03T04:09:48.316Z,100.00
2023-01-03T04:12:15.236Z,100.00
2023-01-03T04:14:42.163Z,100.00
2023-01-03T04:17:10.695Z,100.00
2023-01-03T04:19:37.600Z,100.00
2023-01-03T04:22:04.559Z,100.00
2023-01-03T04:24:31.367Z,100.00
2023-01-03T04:26:58.251Z,100.00
2023-01-03T04:29:25.238Z,100.00
2023-01-03T04:31:52.248Z,100.00
2023-01-03T04:34:19.180Z,100.00
2023-01-03T04:36:46.282Z,100.00
2023-01-03T04:39:13.173Z,100.00
2023-01-03T04:41:40.150Z,100.00
2023-01-03T04:44:07.002Z,100.00
2023-01-03T04:46:39.356Z,100.00
2023-01-03T04:49:08.680Z,100.00
2023-01-03T04:51:36.398Z,100.00
2023-01-03T04:54:04.518Z,100.00
2023-01-03T04:56:34.775Z,100.00
2023-01-03T04:59:01.722Z,100.00
2023-01-03T05:01:29.172Z,100.00
2023-01-03T05:04:00.904Z,100.00
2023-01-03T05:06:28.877Z,99.90
2023-01-03T05:08:56.048Z,99.59
2023-01-03T05:11:23.842Z,99.72
2023-01-03T05:13:50.795Z,99.48
2023-01-03T05:16:17.972Z,99.24
2023-01-03T05:18:45.136Z,98.74
2023-01-03T05:21:38.438Z,98.46
2023-01-03T05:24:24.782Z,97.95
2023-01-03T05:26:53.146Z,97.70
2023-01-03T05:29:22.167Z,97.72
2023-01-03T05:31:49.984Z,97.51
2023-01-03T05:34:17.214Z,97.39
2023-01-03T05:36:44.185Z,97.32
2023-01-03T05:39:11.322Z,97.22
2023-01-03T05:41:57.074Z,96.99
2023-01-03T05:44:24.456Z,97.06
2023-01-03T05:46:51.935Z,97.02
2023-01-03T05:49:18.814Z,96.87
2023-01-03T05:51:45.784Z,96.39
2023-01-03T05:54:15.247Z,96.40
2023-01-03T05:56:42.773Z,96.57
2023-01-03T05:59:10.171Z,96.68
2023-01-03T06:01:39.795Z,96.14
2023-01-03T06:04:07.368Z,96.20
2023-01-03T06:06:34.504Z,96.37
2023-01-03T06:09:02.115Z,96.43
2023-01-03T06:11:29.108Z,96.52
2023-01-03T06:13:56.059Z,96.77
2023-01-03T06:16:43.210Z,96.87
2023-01-03T06:19:10.367Z,97.43
2023-01-03T06:21:37.880Z,97.30
2023-01-03T06:24:05.238Z,97.30
2023-01-03T06:26:32.130Z,97.53
2023-01-03T06:28:59.727Z,97.58
2023-01-03T06:31:27.102Z,97.28
2023-01-03T06:33:56.401Z,97.24
2023-01-03T06:36:26.255Z,97.05
2023-01-03T06:38:54.130Z,96.98
2023-01-03T06:41:21.819Z,97.22
2023-01-03T06:43:49.185Z,97.21
2023-01-03T06:46:35.493Z,97.03
2023-01-03T06:49:21.030Z,96.55
2023-01-03T06:52:09.175Z,96.34
2023-01-03T06:54:38.979Z,95.96
2023-01-03T06:57:05.977Z,95.76
2023-01-03T06:59:33.155Z,96.15
2023-01-03T07:02:00.231Z,96.36
2023-01-03T07:04:27.757Z,95.90
2023-01-03T07:06:54.803Z,95.11
2023-01-03T07:09:21.738Z,95.16
2023-01-03T07:11:48.711Z,94.72
2023-01-03T07:14:15.587Z,94.82
2023-01-03T07:16:49.073Z,94.23
2023-01-03T07:19:19.319Z,94.22
2023-01-03T07:21:46.864Z,93.93
2023-01-03T07:24:16.157Z,93.78
2023-01-03T07:26:43.236Z,93.47
2023-01-03T07:29:11.318Z,93.59
2023-01-03T07:31:41.865Z,93.67
2023-01-03T07:34:09.613Z,93.34
2023-01-03T07:36:36.850Z,93.28
2023-01-03T07:39:03.862Z,92.90
2023-01-03T07:41:49.334Z,93.00
2023-01-03T07:44:16.479Z,92.58
2023-01-03T07:46:43.396Z,91.89
2023-01-03T07:49:12.152Z,90.88
2023-01-03T07:51:39.574Z,90.07
2023-01-03T07:54:07.820Z,89.76
2023-01-03T07:56:35.456Z,90.05
2023-01-03T07:59:02.633Z,90.70
2023-01-03T08:01:30.634Z,90.21
2023-01-03T08:03:58.139Z,89.88
2023-01-03T08:06:25.035Z,90.00
2023-01-03T08:09:11.731Z,90.30
2023-01-03T08:11:57.619Z,90.24
2023-01-03T08:14:26.631Z,89.41
2023-01-03T08:16:55.332Z,89.87
2023-01-03T08:19:22.849Z,89.75
2023-01-03T08:21:49.855Z,89.29
2023-01-03T08:24:16.803Z,88.85
2023-01-03T08:26:43.859Z,88.60
2023-01-03T08:29:11.741Z,88.42
2023-01-03T08:31:44.560Z,87.90
2023-01-03T08:34:18.586Z,88.00
2023-01-03T08:36:57.211Z,88.47
2023-01-03T08:39:29.342Z,88.38
2023-01-03T08:42:02.454Z,88.52
2023-01-03T08:44:29.488Z,88.45
2023-01-03T08:47:00.329Z,88.14
2023-01-03T08:49:28.093Z,87.84
2023-01-03T08:51:55.285Z,87.75
2023-01-03T08:54:22.229Z,87.67
2023-01-03T08:56:49.109Z,87.50
2023-01-03T08:59:16.389Z,87.62
2023-01-03T09:01:43.362Z,86.88
2023-01-03T09:04:10.422Z,86.50
2023-01-03T09:06:37.471Z,86.35
2023-01-03T09:09:05.805Z,85.96
2023-01-03T09:11:32.854Z,85.86
2023-01-03T09:14:01.142Z,85.69
2023-01-03T09:16:28.005Z,85.40
2023-01-03T09:18:54.992Z,85.10
2023-01-03T09:21:21.942Z,84.87
2023-01-03T09:23:49.074Z,83.72
2023-01-03T09:26:16.039Z,84.20
2023-01-03T09:28:43.090Z,83.98
2023-01-03T09:31:10.046Z,83.62
2023-01-03T09:33:37.583Z,83.20
2023-01-03T09:36:05.350Z,83.12
2023-01-03T09:38:32.208Z,82.10
2023-01-03T09:41:08.857Z,82.12
2023-01-03T09:43:46.090Z,81.28
2023-01-03T09:46:22.034Z,81.21
2023-01-03T09:48:50.630Z,80.33
2023-01-03T09:51:58.209Z,79.96
2023-01-03T09:54:48.417Z,79.28
2023-01-03T09:57:38.181Z,79.12
2023-01-03T10:00:31.154Z,77.61
2023-01-03T10:03:37.495Z,77.63
2023-01-03T10:06:25.542Z,77.52
2023-01-03T10:09:07.121Z,77.57
2023-01-03T10:12:00.252Z,77.25
2023-01-03T10:14:55.654Z,77.28
2023-01-03T10:17:45.667Z,77.36
2023-01-03T10:20:26.278Z,77.22
2023-01-03T10:22:56.832Z,77.15
2023-01-03T10:25:24.721Z,76.65
2023-01-03T10:28:16.448Z,76.33
2023-01-03T10:30:49.425Z,76.32
2023-01-03T10:33:37.987Z,76.60
2023-01-03T10:36:05.936Z,76.46
2023-01-03T10:38:38.429Z,76.67
2023-01-03T10:41:20.807Z,75.88
2023-01-03T10:44:04.521Z,76.03
2023-01-03T10:46:31.705Z,76.00
2023-01-03T10:49:27.739Z,76.29
2023-01-03T10:52:01.203Z,75.87
2023-01-03T10:54:44.369Z,75.78
2023-01-03T10:57:38.268Z,76.22
2023-01-03T11:00:22.121Z,75.69
2023-01-03T11:02:50.140Z,76.00
2023-01-03T11:05:20.631Z,75.17
2023-01-03T11:07:55.568Z,75.51
2023-01-03T11:10:24.500Z,75.42
2023-01-03T11:12:51.528Z,75.40
2023-01-03T11:15:39.166Z,75.27
2023-01-03T11:18:17.477Z,74.62
2023-01-03T11:20:52.510Z,74.27
2023-01-03T11:23:49.069Z,73.57
2023-01-03T11:26:37.647Z,73.26
2023-01-03T11:29:22.804Z,72.94
2023-01-03T11:32:13.798Z,72.55
2023-01-03T11:35:25.904Z,72.51
2023-01-03T11:38:13.847Z,72.28
2023-01-03T11:40:49.364Z,72.16
2023-01-03T11:43:37.731Z,71.56
2023-01-03T11:46:31.060Z,71.62
2023-01-03T11:49:04.031Z,71.00
2023-01-03T11:51:43.520Z,70.93
2023-01-03T11:54:46.521Z,70.42
2023-01-03T11:57:44.791Z,69.66
2023-01-03T12:00:28.739Z,69.09
2023-01-03T12:03:04.313Z,69.14
2023-01-03T12:05:37.626Z,68.77
2023-01-03T12:08:04.725Z,68.50
2023-01-03T12:10:43.550Z,68.58
2023-01-03T12:13:32.116Z,68.15
2023-01-03T12:16:08.864Z,67.39
2023-01-03T12:18:55.154Z,67.48
2023-01-03T12:21:34.871Z,67.27
2023-01-03T12:24:04.947Z,66.70
2023-01-03T12:26:34.133Z,66.55
2023-01-03T12:29:13.078Z,66.25
2023-01-03T12:31:48.000Z,66.37
2023-01-03T12:34:24.488Z,66.40
2023-01-03T12:37:19.039Z,66.43
2023-01-03T12:40:04.068Z,66.47
2023-01-03T12:42:43.823Z,65.90
2023-01-03T12:45:38.644Z,66.00
2023-01-03T12:48:13.529Z,65.52
2023-01-03T12:50:45.783Z,65.11
2023-01-03T12:53:22.227Z,64.88
2023-01-03T12:55:58.351Z,65.01
2023-01-03T12:58:39.730Z,64.62
2023-01-03T13:01:42.337Z,64.44
2023-01-03T13:04:23.783Z,64.33
2023-01-03T13:07:05.896Z,64.13
2023-01-03T13:09:41.046Z,64.04
2023-01-03T13:12:19.104Z,63.65
2023-01-03T13:15:02.836Z,63.47
2023-01-03T13:17:33.155Z,63.34
2023-01-03T13:20:24.432Z,62.88
2023-01-03T13:23:00.297Z,62.66
2023-01-03T13:25:40.608Z,62.49
2023-01-03T13:28:19.971Z,62.34
2023-01-03T13:30:47.559Z,62.16
2023-01-03T13:33:16.607Z,62.20
2023-01-03T13:35:46.818Z,61.70
2023-01-03T13:38:28.957Z,61.71
2023-01-03T13:41:26.101Z,61.38
2023-01-03T13:43:55.372Z,61.10
2023-01-03T13:46:31.728Z,60.92
2023-01-03T13:49:07.930Z,61.13
2023-01-03T13:51:41.227Z,59.92
2023-01-03T13:54:11.093Z,60.25
2023-01-03T13:56:44.103Z,59.47
2023-01-03T13:59:14.046Z,58.85
2023-01-03T14:02:15.842Z,58.19
2023-01-03T14:04:55.047Z,57.62
2023-01-03T14:08:13.950Z,57.32
2023-01-03T14:11:02.731Z,57.71
2023-01-03T14:13:49.954Z,57.30
2023-01-03T14:16:24.999Z,57.64
2023-01-03T14:19:12.185Z,57.33
2023-01-03T14:21:47.996Z,57.32
2023-01-03T14:24:36.278Z,57.63
2023-01-03T14:27:17.778Z,57.71
2023-01-03T14:29:50.980Z,57.82
2023-01-03T14:32:33.995Z,57.28
2023-01-03T14:35:02.219Z,57.86
2023-01-03T14:37:33.294Z,57.61
2023-01-03T14:40:06.367Z,57.65
2023-01-03T14:42:33.498Z,57.63
2023-01-03T14:45:03.816Z,57.62
2023-01-03T14:47:42.880Z,57.75
2023-01-03T14:50:25.772Z,59.92
2023-01-03T14:52:55.651Z,58.47
2023-01-03T14:55:28.280Z,58.91
2023-01-03T14:57:57.015Z,59.05
2023-01-03T15:00:32.632Z,59.25
2023-01-03T15:03:02.203Z,59.78
2023-01-03T15:05:35.451Z,60.02
2023-01-03T15:08:15.292Z,60.53
2023-01-03T15:10:45.228Z,60.96
2023-01-03T15:13:24.133Z,61.24
2023-01-03T15:15:59.480Z,61.19
2023-01-03T15:18:31.816Z,61.72
2023-01-03T15:21:02.365Z,62.16
2023-01-03T15:23:46.509Z,62.08
2023-01-03T15:26:37.850Z,62.30
2023-01-03T15:29:16.856Z,62.69
2023-01-03T15:31:58.770Z,62.96
2023-01-03T15:34:28.707Z,63.34
2023-01-03T15:37:05.471Z,63.49
2023-01-03T15:39:46.967Z,63.73
2023-01-03T15:42:46.063Z,63.83
2023-01-03T15:45:22.647Z,64.24
2023-01-03T15:47:53.063Z,64.44
2023-01-03T15:50:20.666Z,65.23
2023-01-03T15:52:48.621Z,65.79
2023-01-03T15:55:17.361Z,66.05
2023-01-03T15:57:54.108Z,66.16
2023-01-03T16:00:24.104Z,66.32
2023-01-03T16:02:51.329Z,66.58
2023-01-03T16:05:22.641Z,66.36
2023-01-03T16:07:51.752Z,66.35
2023-01-03T16:10:21.795Z,66.32
2023-01-03T16:12:48.889Z,66.25
2023-01-03T16:15:22.683Z,66.44
2023-01-03T16:17:51.651Z,66.21
2023-01-03T16:20:19.386Z,66.41
2023-01-03T16:22:59.623Z,66.24
2023-01-03T16:25:28.041Z,66.57
2023-01-03T16:27:55.208Z,66.42
2023-01-03T16:30:24.226Z,66.44
2023-01-03T16:32:51.966Z,66.49
2023-01-03T16:35:20.618Z,66.22
2023-01-03T16:37:47.768Z,66.22
2023-01-03T16:40:17.326Z,66.42
2023-01-03T16:42:44.585Z,66.60
2023-01-03T16:45:11.753Z,66.93
2023-01-03T16:47:39.955Z,67.26
2023-01-03T16:50:14.415Z,67.39
2023-01-03T16:52:46.625Z,67.40
2023-01-03T16:55:24.162Z,67.74
2023-01-03T16:57:54.541Z,67.85
2023-01-03T17:00:25.008Z,68.36
2023-01-03T17:02:54.507Z,68.35
2023-01-03T17:05:23.828Z,68.80
2023-01-03T17:07:55.913Z,68.91
2023-01-03T17:10:29.148Z,68.96
2023-01-03T17:12:58.403Z,69.09
2023-01-03T17:15:26.483Z,69.51
2023-01-03T17:17:53.825Z,69.90
2023-01-03T17:20:21.898Z,69.97
2023-01-03T17:22:56.501Z,70.11
2023-01-03T17:25:25.092Z,70.34
2023-01-03T17:27:55.195Z,70.34
2023-01-03T17:30:25.316Z,70.15
2023-01-03T17:32:52.381Z,70.37
2023-01-03T17:35:19.604Z,70.22
2023-01-03T17:40:34.771Z,70.66
2023-01-03T17:43:02.483Z,71.00
2023-01-03T17:45:48.010Z,70.62
2023-01-03T17:48:33.872Z,70.57
2023-01-03T17:51:01.803Z,70.83
2023-01-03T17:53:29.678Z,70.72
2023-01-03T17:55:56.611Z,70.76
2023-01-03T17:58:32.213Z,70.69
2023-01-03T18:00:59.371Z,70.59
2023-01-03T18:03:26.431Z,70.43
2023-01-03T18:05:54.850Z,70.34
2023-01-03T18:08:24.163Z,70.34
2023-01-03T18:10:53.931Z,70.49
2023-01-03T18:13:37.114Z,70.88
2023-01-03T18:16:05.091Z,70.96
2023-01-03T18:18:32.863Z,71.04
2023-01-03T18:21:02.065Z,70.75
2023-01-03T18:23:33.639Z,71.20
2023-01-03T18:26:04.501Z,72.02
2023-01-03T18:28:32.240Z,72.03
2023-01-03T18:30:59.310Z,72.22
2023-01-03T18:33:26.348Z,72.76
2023-01-03T18:35:54.016Z,73.15
2023-01-03T18:38:41.160Z,73.45
2023-01-03T18:41:18.474Z,73.54
2023-01-03T18:43:45.473Z,73.59
2023-01-03T18:46:16.909Z,73.73
2023-01-03T18:48:44.044Z,73.91
2023-01-03T18:51:19.453Z,74.54
2023-01-03T18:53:50.988Z,74.67
2023-01-03T18:56:25.937Z,74.61
2023-01-03T18:59:01.577Z,74.28
2023-01-03T19:01:30.104Z,74.90
2023-01-03T19:03:57.745Z,75.27
2023-01-03T19:06:33.856Z,75.04
2023-01-03T19:09:04.235Z,74.93
2023-01-03T19:11:34.730Z,74.97
2023-01-03T19:14:03.452Z,74.91
2023-01-03T19:16:34.311Z,74.84
2023-01-03T19:19:02.609Z,74.93
2023-01-03T19:21:33.504Z,75.02
2023-01-03T19:24:19.681Z,74.95
2023-01-03T19:27:10.339Z,75.16
2023-01-03T19:29:38.498Z,75.62
2023-01-03T19:32:28.388Z,75.48
2023-01-03T19:34:55.770Z,75.51
2023-01-03T19:37:23.775Z,75.34
2023-01-03T19:39:51.541Z,75.93
2023-01-03T19:42:38.929Z,76.58
2023-01-03T19:45:17.169Z,76.67
2023-01-03T19:47:44.421Z,76.52
2023-01-03T19:50:21.782Z,76.85
2023-01-03T19:52:49.120Z,76.93
2023-01-03T19:55:17.508Z,77.47
2023-01-03T19:57:47.571Z,77.29
2023-01-03T20:00:44.069Z,77.45
2023-01-03T20:03:25.688Z,77.43
2023-01-03T20:05:53.140Z,77.20
2023-01-03T20:08:20.248Z,77.29
2023-01-03T20:10:47.643Z,77.07
2023-01-03T20:13:20.404Z,76.96
2023-01-03T20:15:48.792Z,76.96
2023-01-03T20:18:28.619Z,77.33
2023-01-03T20:21:06.500Z,77.59
2023-01-03T20:23:37.344Z,77.32
2023-01-03T20:26:05.045Z,77.23
2023-01-03T20:28:32.592Z,77.25
2023-01-03T20:31:01.118Z,77.08
2023-01-03T20:33:28.677Z,77.16
2023-01-03T20:36:11.588Z,77.16
2023-01-03T20:38:44.547Z,77.20
2023-01-03T20:41:12.745Z,77.33
2023-01-03T20:43:39.628Z,77.58
2023-01-03T20:46:10.267Z,77.90
2023-01-03T20:48:37.241Z,78.37
2023-01-03T20:51:04.159Z,78.82
2023-01-03T20:53:31.117Z,79.08
2023-01-03T20:55:57.986Z,78.87
2023-01-03T20:58:25.729Z,79.08
2023-01-03T21:00:58.168Z,79.07
2023-01-03T21:03:30.951Z,78.76
2023-01-03T21:05:59.106Z,78.70
2023-01-03T21:08:44.521Z,79.46
2023-01-03T21:11:12.342Z,79.26
2023-01-03T21:13:39.665Z,78.66
2023-01-03T21:16:26.085Z,78.68
2023-01-03T21:18:53.541Z,78.90
2023-01-03T21:21:22.121Z,78.88
2023-01-03T21:23:49.241Z,78.66
2023-01-03T21:26:16.206Z,78.51
2023-01-03T21:28:43.258Z,78.97
2023-01-03T21:31:17.377Z,79.74
2023-01-03T21:33:44.888Z,79.59
2023-01-03T21:36:23.428Z,79.78
2023-01-03T21:38:51.613Z,80.16
2023-01-03T21:41:21.549Z,80.63
2023-01-03T21:43:48.625Z,80.44
2023-01-03T21:46:17.927Z,80.27
2023-01-03T21:48:45.105Z,80.17
2023-01-03T21:51:13.880Z,80.27
2023-01-03T21:53:41.615Z,80.60
2023-01-03T21:56:19.190Z,80.74
2023-01-03T21:58:46.240Z,81.39
2023-01-03T22:01:16.901Z,81.51
2023-01-03T22:04:02.524Z,81.38
2023-01-03T22:06:29.533Z,81.47
2023-01-03T22:08:57.449Z,81.83
2023-01-03T22:11:25.207Z,82.61
2023-01-03T22:13:55.285Z,83.17
2023-01-03T22:16:23.117Z,82.95
2023-01-03T22:18:50.020Z,82.75
2023-01-03T22:21:17.174Z,83.08
2023-01-03T22:23:43.994Z,83.04
2023-01-03T22:26:13.096Z,83.55
2023-01-03T22:28:42.425Z,83.61
2023-01-03T22:31:22.837Z,83.55
2023-01-03T22:33:50.768Z,83.42
2023-01-03T22:36:18.016Z,83.48
2023-01-03T22:38:45.209Z,83.81
2023-01-03T22:41:17.260Z,84.06
2023-01-03T22:43:45.443Z,83.64
2023-01-03T22:46:14.790Z,83.38
2023-01-03T22:48:42.771Z,83.54
2023-01-03T22:51:12.802Z,84.06
2023-01-03T22:53:41.468Z,83.74
2023-01-03T22:56:11.272Z,83.82
2023-01-03T22:58:38.757Z,83.38
2023-01-03T23:01:16.892Z,83.49
2023-01-03T23:03:45.364Z,83.40
2023-01-03T23:06:15.731Z,83.62
2023-01-03T23:08:43.334Z,83.45
2023-01-03T23:11:34.987Z,83.69
2023-01-03T23:14:05.282Z,83.50
2023-01-03T23:16:32.474Z,83.42
2023-01-03T23:19:02.335Z,83.62
2023-01-03T23:21:29.427Z,84.25
2023-01-03T23:23:56.517Z,84.42
2023-01-03T23:26:23.511Z,83.91
2023-01-03T23:28:54.628Z,84.26
2023-01-03T23:31:21.730Z,84.11
2023-01-03T23:33:49.026Z,83.72
2023-01-03T23:36:17.146Z,83.56
2023-01-03T23:38:44.044Z,83.32
2023-01-03T23:41:11.251Z,83.36
2023-01-03T23:43:38.825Z,83.35
2023-01-03T23:46:06.619Z,82.82
2023-01-03T23:48:33.962Z,82.54
2023-01-03T23:51:08.575Z,82.16
2023-01-03T23:53:37.983Z,82.42
2023-01-03T23:56:09.565Z,82.16
2023-01-03T23:58:36.580Z,81.93
